createdAt,value
2019-06-20T00:01:09.050Z,99.90
2019-06-20T00:03:39.236Z,99.90
2019-06-20T00:06:08.926Z,99.90
2019-06-20T00:08:38.587Z,99.90
2019-06-20T00:11:08.418Z,99.90
2019-06-20T00:13:38.082Z,99.90
2019-06-20T00:16:07.949Z,99.90
2019-06-20T00:18:37.553Z,99.90
2019-06-20T00:21:07.284Z,99.90
2019-06-20T00:23:37.015Z,99.90
2019-06-20T00:26:06.598Z,99.90
2019-06-20T00:28:36.198Z,99.90
2019-06-20T00:31:06.121Z,99.90
2019-06-20T00:33:35.767Z,99.90
2019-06-20T00:36:05.635Z,99.90
2019-06-20T00:38:35.242Z,99.90
2019-06-20T00:41:04.930Z,99.90
2019-06-20T00:43:34.523Z,99.90
2019-06-20T00:46:04.215Z,99.90
2019-06-20T00:48:33.848Z,99.90
2019-06-20T00:51:03.543Z,99.90
2019-06-20T00:53:33.140Z,99.90
2019-06-20T00:56:02.762Z,99.90
2019-06-20T00:58:32.361Z,99.90
2019-06-20T01:01:02.056Z,99.90
2019-06-20T01:03:31.763Z,99.90
2019-06-20T01:06:01.468Z,99.90
2019-06-20T01:08:31.043Z,99.90
2019-06-20T01:11:00.665Z,99.90
2019-06-20T01:13:34.161Z,99.90
2019-06-20T01:16:01.757Z,99.90
2019-06-20T01:18:31.351Z,99.90
2019-06-20T01:21:01.589Z,99.90
2019-06-20T01:23:31.210Z,99.90
2019-06-20T01:26:00.814Z,99.90
2019-06-20T01:28:30.453Z,99.90
2019-06-20T01:31:00.089Z,99.90
2019-06-20T01:33:29.686Z,99.90
2019-06-20T01:35:59.371Z,99.90
2019-06-20T01:38:28.994Z,99.90
2019-06-20T01:40:58.616Z,99.90
2019-06-20T01:43:28.254Z,99.90
2019-06-20T01:45:58.015Z,99.90
2019-06-20T01:48:27.603Z,99.90
2019-06-20T01:50:57.248Z,99.90
2019-06-20T01:53:26.885Z,99.90
2019-06-20T01:55:56.482Z,99.90
2019-06-20T01:58:26.109Z,99.90
2019-06-20T02:00:56.121Z,99.90
2019-06-20T02:03:25.943Z,99.90
2019-06-20T02:05:55.566Z,99.90
2019-06-20T02:08:25.194Z,99.90
2019-06-20T02:10:54.878Z,99.90
2019-06-20T02:13:24.503Z,99.90
2019-06-20T02:15:54.171Z,99.90
2019-06-20T02:18:23.866Z,99.90
2019-06-20T02:20:57.909Z,99.90
2019-06-20T02:23:27.779Z,99.90
2019-06-20T02:25:57.485Z,99.90
2019-06-20T02:28:27.160Z,99.90
2019-06-20T02:30:56.883Z,99.90
2019-06-20T02:33:26.512Z,99.90
2019-06-20T02:35:56.115Z,99.90
2019-06-20T02:38:25.737Z,99.90
2019-06-20T02:40:55.328Z,99.90
2019-06-20T02:43:25.112Z,99.90
2019-06-20T02:45:55.071Z,99.90
2019-06-20T02:48:24.667Z,99.90
2019-06-20T02:50:54.568Z,99.90
2019-06-20T02:53:24.155Z,99.90
2019-06-20T02:55:53.788Z,99.90
2019-06-20T02:58:23.386Z,99.90
2019-06-20T03:01:00.100Z,99.90
2019-06-20T03:03:30.669Z,99.90
2019-06-20T03:06:00.439Z,99.90
2019-06-20T03:08:30.899Z,99.90
2019-06-20T03:11:00.497Z,99.90
2019-06-20T03:13:30.192Z,99.90
2019-06-20T03:15:59.793Z,99.90
2019-06-20T03:18:29.419Z,99.90
2019-06-20T03:20:59.014Z,99.90
2019-06-20T03:23:28.766Z,99.90
2019-06-20T03:25:58.405Z,99.90
2019-06-20T03:28:28.023Z,99.90
2019-06-20T03:30:57.652Z,99.90
2019-06-20T03:33:27.281Z,99.90
2019-06-20T03:35:56.874Z,99.90
2019-06-20T03:38:26.509Z,99.90
2019-06-20T03:40:56.163Z,99.90
2019-06-20T03:43:25.726Z,99.90
2019-06-20T03:45:55.346Z,99.90
2019-06-20T03:48:24.956Z,99.90
2019-06-20T03:50:54.594Z,99.90
2019-06-20T03:53:24.191Z,99.90
2019-06-20T03:55:53.845Z,99.90
2019-06-20T03:58:23.429Z,99.90
2019-06-20T04:00:53.051Z,99.90
2019-06-20T04:03:22.695Z,99.90
2019-06-20T04:05:52.317Z,99.90
2019-06-20T04:08:21.915Z,99.90
2019-06-20T04:10:51.651Z,99.90
2019-06-20T04:13:21.249Z,99.90
2019-06-20T04:15:50.910Z,99.90
2019-06-20T04:18:20.527Z,99.90
2019-06-20T04:20:50.207Z,99.90
2019-06-20T04:23:19.833Z,99.90
2019-06-20T04:25:49.426Z,99.90
2019-06-20T04:28:19.063Z,99.90
2019-06-20T04:30:48.670Z,99.90
2019-06-20T04:33:18.276Z,99.90
2019-06-20T04:35:47.898Z,99.90
2019-06-20T04:38:17.493Z,99.90
2019-06-20T04:40:47.119Z,99.90
2019-06-20T04:43:16.744Z,99.90
2019-06-20T04:46:03.154Z,99.90
2019-06-20T04:48:32.776Z,99.90
2019-06-20T04:51:02.371Z,99.90
2019-06-20T04:53:31.998Z,99.90
2019-06-20T04:56:05.432Z,99.90
2019-06-20T04:58:33.220Z,99.90
2019-06-20T05:01:02.837Z,99.90
2019-06-20T05:03:32.524Z,99.90
2019-06-20T05:06:02.125Z,99.90
2019-06-20T05:08:31.756Z,99.90
2019-06-20T05:11:01.454Z,99.90
2019-06-20T05:13:31.144Z,99.90
2019-06-20T05:16:00.749Z,99.90
2019-06-20T05:18:30.370Z,99.90
2019-06-20T05:20:59.964Z,99.90
2019-06-20T05:23:29.593Z,99.90
2019-06-20T05:25:59.194Z,99.90
2019-06-20T05:28:28.815Z,99.90
2019-06-20T05:30:58.432Z,99.40
2019-06-20T05:33:28.030Z,99.90
2019-06-20T05:35:57.850Z,99.90
2019-06-20T05:38:27.539Z,99.90
2019-06-20T05:40:57.154Z,99.90
2019-06-20T05:43:26.754Z,99.90
2019-06-20T05:46:08.983Z,99.90
2019-06-20T05:48:27.746Z,99.90
2019-06-20T05:50:57.381Z,98.20
2019-06-20T05:53:26.973Z,97.70
2019-06-20T05:55:56.604Z,97.20
2019-06-20T05:58:26.231Z,97.00
2019-06-20T06:00:55.830Z,98.10
2019-06-20T06:03:25.449Z,97.00
2019-06-20T06:05:55.116Z,97.40
2019-06-20T06:08:24.743Z,97.90
2019-06-20T06:10:54.370Z,97.30
2019-06-20T06:13:23.963Z,97.90
2019-06-20T06:15:53.558Z,97.10
2019-06-20T06:18:23.224Z,97.40
2019-06-20T06:20:52.931Z,97.10
2019-06-20T06:23:22.522Z,96.50
2019-06-20T06:25:52.225Z,95.60
2019-06-20T06:28:21.834Z,95.90
2019-06-20T06:30:51.549Z,96.20
2019-06-20T06:33:21.218Z,94.70
2019-06-20T06:35:50.909Z,95.50
2019-06-20T06:38:22.367Z,96.70
2019-06-20T06:40:51.951Z,96.40
2019-06-20T06:43:21.650Z,96.50
2019-06-20T06:45:51.469Z,97.20
2019-06-20T06:48:21.262Z,96.70
2019-06-20T06:50:50.983Z,95.10
2019-06-20T06:53:20.631Z,96.10
2019-06-20T06:55:50.431Z,96.20
2019-06-20T06:58:20.130Z,97.40
2019-06-20T07:00:49.797Z,97.00
2019-06-20T07:03:19.458Z,96.20
2019-06-20T07:05:49.150Z,96.20
2019-06-20T07:08:18.819Z,94.90
2019-06-20T07:10:48.551Z,94.50
2019-06-20T07:13:18.149Z,94.40
2019-06-20T07:15:47.857Z,93.20
2019-06-20T07:18:17.552Z,92.30
2019-06-20T07:20:47.246Z,92.00
2019-06-20T07:23:16.981Z,91.60
2019-06-20T07:25:46.555Z,92.70
2019-06-20T07:28:16.223Z,91.50
2019-06-20T07:30:46.023Z,91.80
2019-06-20T07:33:15.688Z,91.90
2019-06-20T07:35:45.442Z,92.70
2019-06-20T07:38:15.035Z,91.20
2019-06-20T07:40:44.909Z,91.70
2019-06-20T07:43:14.539Z,91.40
2019-06-20T07:46:01.215Z,90.90
2019-06-20T07:48:15.668Z,90.80
2019-06-20T07:50:46.195Z,90.50
2019-06-20T07:53:15.813Z,91.90
2019-06-20T07:55:45.435Z,90.50
2019-06-20T07:58:15.055Z,90.00
2019-06-20T08:00:44.763Z,90.70
2019-06-20T08:03:14.513Z,88.70
2019-06-20T08:05:44.208Z,89.90
2019-06-20T08:08:13.869Z,91.30
2019-06-20T08:10:43.624Z,91.40
2019-06-20T08:13:13.221Z,90.40
2019-06-20T08:15:42.839Z,88.70
2019-06-20T08:18:12.465Z,86.10
2019-06-20T08:20:42.101Z,87.10
2019-06-20T08:23:11.697Z,87.30
2019-06-20T08:25:41.320Z,87.00
2019-06-20T08:28:10.982Z,87.70
2019-06-20T08:30:40.734Z,85.30
2019-06-20T08:33:12.253Z,84.50
2019-06-20T08:35:41.738Z,82.30
2019-06-20T08:38:11.335Z,82.90
2019-06-20T08:40:41.032Z,82.30
2019-06-20T08:43:11.269Z,83.00
2019-06-20T08:45:43.813Z,83.40
2019-06-20T08:48:13.550Z,80.00
2019-06-20T08:50:43.640Z,80.30
2019-06-20T08:53:13.238Z,79.20
2019-06-20T08:55:42.998Z,81.10
2019-06-20T08:58:12.658Z,75.90
2019-06-20T09:00:42.828Z,75.80
2019-06-20T09:03:12.454Z,74.30
2019-06-20T09:05:42.143Z,74.00
2019-06-20T09:08:12.176Z,71.60
2019-06-20T09:10:43.179Z,73.20
2019-06-20T09:13:13.831Z,72.90
2019-06-20T09:15:44.051Z,65.30
2019-06-20T09:18:13.720Z,62.70
2019-06-20T09:20:43.412Z,68.40
2019-06-20T09:23:13.077Z,66.90
2019-06-20T09:25:42.839Z,66.50
2019-06-20T09:28:12.505Z,64.00
2019-06-20T09:30:42.358Z,62.80
2019-06-20T09:33:12.026Z,62.20
2019-06-20T09:35:41.620Z,62.50
2019-06-20T09:38:11.266Z,60.90
2019-06-20T09:40:40.940Z,60.50
2019-06-20T09:43:10.677Z,63.70
2019-06-20T09:45:40.475Z,58.40
2019-06-20T09:48:10.104Z,61.40
2019-06-20T09:50:39.790Z,61.50
2019-06-20T09:53:09.497Z,62.10
2019-06-20T09:55:39.163Z,59.80
2019-06-20T09:58:10.652Z,58.90
2019-06-20T10:00:40.754Z,58.30
2019-06-20T10:03:11.193Z,59.40
2019-06-20T10:05:40.890Z,58.20
2019-06-20T10:08:10.652Z,57.30
2019-06-20T10:10:41.256Z,55.20
2019-06-20T10:13:11.006Z,54.30
2019-06-20T10:15:40.806Z,54.80
2019-06-20T10:18:10.558Z,52.60
2019-06-20T10:20:40.481Z,53.80
2019-06-20T10:23:10.169Z,54.00
2019-06-20T10:25:40.036Z,53.90
2019-06-20T10:28:10.034Z,55.10
2019-06-20T10:30:39.627Z,53.00
2019-06-20T10:33:09.858Z,52.50
2019-06-20T10:35:39.599Z,52.30
2019-06-20T10:38:09.206Z,52.10
2019-06-20T10:40:38.906Z,52.00
2019-06-20T10:43:08.570Z,51.10
2019-06-20T10:45:38.783Z,51.20
2019-06-20T10:48:08.628Z,50.30
2019-06-20T10:50:38.371Z,51.40
2019-06-20T10:53:08.147Z,50.40
2019-06-20T10:55:37.938Z,49.40
2019-06-20T10:58:07.746Z,51.40
2019-06-20T11:00:37.461Z,50.20
2019-06-20T11:03:07.489Z,49.50
2019-06-20T11:05:37.184Z,51.10
2019-06-20T11:08:07.075Z,51.30
2019-06-20T11:10:36.864Z,53.60
2019-06-20T11:13:06.554Z,50.80
2019-06-20T11:15:37.521Z,51.20
2019-06-20T11:18:07.800Z,51.10
2019-06-20T11:20:38.025Z,51.40
2019-06-20T11:23:08.694Z,51.50
2019-06-20T11:25:39.974Z,49.50
2019-06-20T11:28:09.918Z,50.00
2019-06-20T11:30:52.999Z,49.30
2019-06-20T11:33:11.389Z,49.00
2019-06-20T11:35:41.833Z,48.00
2019-06-20T11:38:11.623Z,47.70
2019-06-20T11:40:41.630Z,51.50
2019-06-20T11:43:11.743Z,48.90
2019-06-20T11:45:41.443Z,47.70
2019-06-20T11:48:11.104Z,50.30
2019-06-20T11:50:42.349Z,51.10
2019-06-20T11:53:12.103Z,49.70
2019-06-20T11:55:42.338Z,52.50
2019-06-20T11:58:11.961Z,52.40
2019-06-20T12:00:41.628Z,50.00
2019-06-20T12:03:11.252Z,50.70
2019-06-20T12:05:41.862Z,51.70
2019-06-20T12:08:12.284Z,51.80
2019-06-20T12:10:43.390Z,51.20
2019-06-20T12:13:12.996Z,51.90
2019-06-20T12:15:42.848Z,49.80
2019-06-20T12:18:12.558Z,48.20
2019-06-20T12:20:42.898Z,50.50
2019-06-20T12:23:12.546Z,50.40
2019-06-20T12:25:42.677Z,47.80
2019-06-20T12:28:12.440Z,48.50
2019-06-20T12:30:43.544Z,45.50
2019-06-20T12:33:13.400Z,52.20
2019-06-20T12:35:44.433Z,52.90
2019-06-20T12:38:15.218Z,53.50
2019-06-20T12:40:46.182Z,53.20
2019-06-20T12:43:15.918Z,52.60
2019-06-20T12:45:45.507Z,53.40
2019-06-20T12:48:15.278Z,49.80
2019-06-20T12:50:45.189Z,50.90
2019-06-20T12:53:14.755Z,50.00
2019-06-20T12:55:45.767Z,51.00
2019-06-20T12:58:15.466Z,52.60
2019-06-20T13:00:46.475Z,51.40
2019-06-20T13:03:16.262Z,51.60
2019-06-20T13:05:47.098Z,52.90
2019-06-20T13:08:16.861Z,52.20
2019-06-20T13:10:46.457Z,51.30
2019-06-20T13:13:16.087Z,52.10
2019-06-20T13:15:46.978Z,48.60
2019-06-20T13:18:16.597Z,48.10
2019-06-20T13:20:46.527Z,49.50
2019-06-20T13:23:16.178Z,49.00
2019-06-20T13:25:46.770Z,47.60
2019-06-20T13:28:16.376Z,47.60
2019-06-20T13:30:50.134Z,47.10
2019-06-20T13:33:18.175Z,47.10
2019-06-20T13:35:48.708Z,46.30
2019-06-20T13:38:18.528Z,42.90
2019-06-20T13:40:49.327Z,41.70
2019-06-20T13:43:19.337Z,41.80
2019-06-20T13:45:49.905Z,41.10
2019-06-20T13:48:19.689Z,43.20
2019-06-20T13:50:49.731Z,43.10
2019-06-20T13:53:19.445Z,44.70
2019-06-20T13:55:50.277Z,45.00
2019-06-20T13:58:20.047Z,46.80
2019-06-20T14:00:50.986Z,47.90
2019-06-20T14:03:20.821Z,49.10
2019-06-20T14:05:51.679Z,50.00
2019-06-20T14:08:21.399Z,49.50
2019-06-20T14:10:52.318Z,50.00
2019-06-20T14:13:22.269Z,50.10
2019-06-20T14:15:51.856Z,51.10
2019-06-20T14:18:21.475Z,49.90
2019-06-20T14:20:51.070Z,48.90
2019-06-20T14:23:20.698Z,49.30
2019-06-20T14:25:51.523Z,49.30
2019-06-20T14:28:21.467Z,48.20
2019-06-20T14:30:51.086Z,49.10
2019-06-20T14:33:20.713Z,48.40
2019-06-20T14:35:51.186Z,48.10
2019-06-20T14:38:20.912Z,49.50
2019-06-20T14:40:50.507Z,47.80
2019-06-20T14:43:20.201Z,48.20
2019-06-20T14:45:50.798Z,47.90
2019-06-20T14:48:20.990Z,49.80
2019-06-20T14:50:51.404Z,48.80
2019-06-20T14:53:21.091Z,51.10
2019-06-20T14:55:51.728Z,55.90
2019-06-20T14:58:21.387Z,55.80
2019-06-20T15:00:52.141Z,55.30
2019-06-20T15:03:21.883Z,56.60
2019-06-20T15:05:52.597Z,58.40
2019-06-20T15:08:22.279Z,58.90
2019-06-20T15:10:51.996Z,58.90
2019-06-20T15:13:21.615Z,59.60
2019-06-20T15:15:51.279Z,59.90
2019-06-20T15:18:20.950Z,60.20
2019-06-20T15:20:51.859Z,60.30
2019-06-20T15:23:21.903Z,59.10
2019-06-20T15:25:52.153Z,61.40
2019-06-20T15:28:21.815Z,61.10
2019-06-20T15:30:52.722Z,63.30
2019-06-20T15:33:22.458Z,63.60
2019-06-20T15:35:53.404Z,63.20
2019-06-20T15:38:23.377Z,64.00
2019-06-20T15:40:53.445Z,63.40
2019-06-20T15:43:23.262Z,65.90
2019-06-20T15:45:53.867Z,66.20
2019-06-20T15:48:23.522Z,65.60
2019-06-20T15:50:53.115Z,64.50
2019-06-20T15:53:22.747Z,62.90
2019-06-20T15:55:52.363Z,64.10
2019-06-20T15:58:21.957Z,65.10
2019-06-20T16:00:51.609Z,66.80
2019-06-20T16:03:21.239Z,70.90
2019-06-20T16:05:50.872Z,72.00
2019-06-20T16:08:20.492Z,73.80
2019-06-20T16:10:50.102Z,74.70
2019-06-20T16:13:19.984Z,76.60
2019-06-20T16:15:49.955Z,78.90
2019-06-20T16:18:19.589Z,77.70
2019-06-20T16:20:49.206Z,78.50
2019-06-20T16:23:18.883Z,77.70
2019-06-20T16:25:48.477Z,78.10
2019-06-20T16:28:18.101Z,78.60
2019-06-20T16:30:47.772Z,78.30
2019-06-20T16:33:25.187Z,78.40
2019-06-20T16:35:48.741Z,78.00
2019-06-20T16:38:18.342Z,80.20
2019-06-20T16:40:49.470Z,79.30
2019-06-20T16:43:19.251Z,77.20
2019-06-20T16:45:48.911Z,75.90
2019-06-20T16:48:18.582Z,76.70
2019-06-20T16:50:48.199Z,73.60
2019-06-20T16:53:17.803Z,75.40
2019-06-20T16:55:47.529Z,76.10
2019-06-20T16:58:17.128Z,77.90
2019-06-20T17:00:46.892Z,80.50
2019-06-20T17:03:16.476Z,80.10
2019-06-20T17:05:46.100Z,78.80
2019-06-20T17:08:16.067Z,79.40
2019-06-20T17:10:45.773Z,78.70
2019-06-20T17:13:15.370Z,80.60
2019-06-20T17:15:45.063Z,80.90
2019-06-20T17:18:14.797Z,82.60
2019-06-20T17:20:44.494Z,83.80
2019-06-20T17:23:14.402Z,83.60
2019-06-20T17:25:44.247Z,82.50
2019-06-20T17:28:14.014Z,82.20
2019-06-20T17:30:43.689Z,81.50
2019-06-20T17:33:13.320Z,83.90
2019-06-20T17:35:43.133Z,85.30
2019-06-20T17:38:12.746Z,83.00
2019-06-20T17:40:42.650Z,79.70
2019-06-20T17:43:12.292Z,83.20
2019-06-20T17:45:41.934Z,89.00
2019-06-20T17:48:11.555Z,89.70
2019-06-20T17:50:41.155Z,84.10
2019-06-20T17:53:10.785Z,84.10
2019-06-20T17:55:40.471Z,84.00
2019-06-20T17:58:10.099Z,89.00
2019-06-20T18:00:40.012Z,91.90
2019-06-20T18:03:09.693Z,91.80
2019-06-20T18:05:39.504Z,93.20
2019-06-20T18:08:15.264Z,93.00
2019-06-20T18:10:40.503Z,93.80
2019-06-20T18:13:10.111Z,94.90
2019-06-20T18:15:41.656Z,95.30
2019-06-20T18:18:11.285Z,96.00
2019-06-20T18:20:41.030Z,95.40
2019-06-20T18:23:10.652Z,95.10
2019-06-20T18:25:40.252Z,95.60
2019-06-20T18:28:09.881Z,96.50
2019-06-20T18:30:43.023Z,97.20
2019-06-20T18:33:13.178Z,98.00
2019-06-20T18:35:43.026Z,98.30
2019-06-20T18:38:13.039Z,99.30
2019-06-20T18:40:44.680Z,99.50
2019-06-20T18:43:14.307Z,99.80
2019-06-20T18:45:44.174Z,99.90
2019-06-20T18:48:13.888Z,99.90
2019-06-20T18:50:43.565Z,99.80
2019-06-20T18:53:13.165Z,99.30
2019-06-20T18:55:42.863Z,99.50
2019-06-20T18:58:12.496Z,99.90
2019-06-20T19:00:42.185Z,99.90
2019-06-20T19:03:11.802Z,99.90
2019-06-20T19:05:41.568Z,99.90
2019-06-20T19:08:11.202Z,99.90
2019-06-20T19:10:40.800Z,99.90
2019-06-20T19:13:13.001Z,99.90
2019-06-20T19:15:41.790Z,99.90
2019-06-20T19:18:11.453Z,99.90
2019-06-20T19:20:41.120Z,99.90
2019-06-20T19:23:10.905Z,99.90
2019-06-20T19:25:40.675Z,99.90
2019-06-20T19:28:12.968Z,99.90
2019-06-20T19:30:49.229Z,99.90
2019-06-20T19:33:19.358Z,99.90
2019-06-20T19:35:48.958Z,99.70
2019-06-20T19:38:18.642Z,99.50
2019-06-20T19:40:50.552Z,96.50
2019-06-20T19:43:20.380Z,97.40
2019-06-20T19:45:50.167Z,98.30
2019-06-20T19:48:19.857Z,97.60
2019-06-20T19:50:49.762Z,95.30
2019-06-20T19:53:19.801Z,94.70
2019-06-20T19:55:49.611Z,93.80
2019-06-20T19:58:19.473Z,92.60
2019-06-20T20:00:49.100Z,93.20
2019-06-20T20:03:18.782Z,93.70
2019-06-20T20:05:48.582Z,91.70
2019-06-20T20:08:18.685Z,90.20
2019-06-20T20:10:50.717Z,88.50
2019-06-20T20:13:20.431Z,89.00
2019-06-20T20:15:50.124Z,89.60
2019-06-20T20:18:19.792Z,89.10
2019-06-20T20:20:49.899Z,90.70
2019-06-20T20:23:19.648Z,90.10
2019-06-20T20:25:49.402Z,90.60
2019-06-20T20:28:19.166Z,90.20
2019-06-20T20:30:48.927Z,90.60
2019-06-20T20:33:18.524Z,91.10
2019-06-20T20:35:48.190Z,91.50
2019-06-20T20:38:20.723Z,92.00
2019-06-20T20:40:50.393Z,93.20
2019-06-20T20:43:20.030Z,93.70
2019-06-20T20:45:49.723Z,95.70
2019-06-20T20:48:20.990Z,96.60
2019-06-20T20:50:50.587Z,97.70
2019-06-20T20:53:20.216Z,97.80
2019-06-20T20:55:51.346Z,97.90
2019-06-20T20:58:20.978Z,97.50
2019-06-20T21:01:09.979Z,97.70
2019-06-20T21:03:39.575Z,99.70
2019-06-20T21:06:09.198Z,99.90
2019-06-20T21:08:38.813Z,99.90
2019-06-20T21:11:08.447Z,99.90
2019-06-20T21:13:40.818Z,99.90
2019-06-20T21:16:10.589Z,99.90
2019-06-20T21:18:40.189Z,99.90
2019-06-20T21:21:09.892Z,99.90
2019-06-20T21:23:42.254Z,99.90
2019-06-20T21:26:11.894Z,99.90
2019-06-20T21:28:41.489Z,99.90
2019-06-20T21:31:11.247Z,99.90
2019-06-20T21:33:40.845Z,99.90
2019-06-20T21:36:10.538Z,99.90
2019-06-20T21:38:40.140Z,99.90
2019-06-20T21:41:09.770Z,99.90
2019-06-20T21:43:40.906Z,99.90
2019-06-20T21:46:10.530Z,99.90
2019-06-20T21:48:40.128Z,99.90
2019-06-20T21:51:09.762Z,99.90
2019-06-20T21:53:39.434Z,99.90
2019-06-20T21:56:09.052Z,99.90
2019-06-20T21:58:38.675Z,99.90
2019-06-20T22:01:10.982Z,99.90
2019-06-20T22:03:40.585Z,99.90
2019-06-20T22:06:22.882Z,99.90
2019-06-20T22:08:41.569Z,99.90
2019-06-20T22:11:11.193Z,99.90
2019-06-20T22:13:42.523Z,99.90
2019-06-20T22:16:12.234Z,99.90
2019-06-20T22:18:41.843Z,99.90
2019-06-20T22:21:11.506Z,99.90
2019-06-20T22:23:41.136Z,99.90
2019-06-20T22:26:10.893Z,99.90
2019-06-20T22:28:40.611Z,99.90
2019-06-20T22:31:10.420Z,99.90
2019-06-20T22:33:40.054Z,99.90
2019-06-20T22:36:09.645Z,99.90
2019-06-20T22:38:39.414Z,99.90
2019-06-20T22:41:09.038Z,99.90
2019-06-20T22:43:38.634Z,99.90
2019-06-20T22:46:08.255Z,99.90
2019-06-20T22:48:37.895Z,99.90
2019-06-20T22:51:07.635Z,99.90
2019-06-20T22:53:37.315Z,99.90
2019-06-20T22:56:06.981Z,99.90
2019-06-20T22:58:37.271Z,99.90
2019-06-20T23:01:06.943Z,99.90
2019-06-20T23:03:36.656Z,99.90
2019-06-20T23:06:06.418Z,99.90
2019-06-20T23:08:36.012Z,99.90
2019-06-20T23:11:05.970Z,99.90
2019-06-20T23:13:35.567Z,99.90
2019-06-20T23:16:05.269Z,99.90
2019-06-20T23:18:34.897Z,99.90
2019-06-20T23:21:05.242Z,99.90
2019-06-20T23:23:35.030Z,99.90
2019-06-20T23:26:06.359Z,99.90
2019-06-20T23:28:36.007Z,99.90
2019-06-20T23:31:05.682Z,99.90
2019-06-20T23:33:35.303Z,99.90
2019-06-20T23:36:05.733Z,99.90
2019-06-20T23:38:35.350Z,99.90
2019-06-20T23:41:04.944Z,99.90
2019-06-20T23:43:34.576Z,99.90
2019-06-20T23:46:04.179Z,99.90
2019-06-20T23:48:33.838Z,99.90
2019-06-20T23:51:03.596Z,99.90
2019-06-20T23:53:33.307Z,99.90
2019-06-20T23:56:03.015Z,99.90
2019-06-20T23:58:32.607Z,99.90
